createdAt,value
2019-03-30T01:52:32.337Z,6.60
2019-03-30T01:55:01.008Z,6.70
2019-03-30T01:57:29.701Z,6.60
2019-03-30T01:59:58.371Z,6.70
2019-03-30T02:02:27.076Z,6.70
2019-03-30T02:04:55.740Z,6.70
2019-03-30T02:07:24.435Z,6.60
2019-03-30T02:09:53.126Z,6.70
2019-03-30T02:12:21.823Z,6.70
2019-03-30T02:14:50.512Z,6.70
2019-03-30T02:17:20.290Z,6.60
2019-03-30T02:19:49.201Z,6.70
2019-03-30T02:22:17.858Z,6.60
2019-03-30T02:24:46.567Z,6.60
2019-03-30T02:27:15.254Z,6.50
2019-03-30T02:29:43.944Z,6.50
2019-03-30T02:32:12.644Z,6.60
2019-03-30T02:34:41.322Z,6.60
2019-03-30T02:37:10.027Z,6.60
2019-03-30T02:39:38.702Z,6.50
2019-03-30T02:42:07.404Z,6.50
2019-03-30T02:44:36.149Z,6.50
2019-03-30T02:47:04.883Z,6.50
2019-03-30T02:49:33.549Z,6.50
2019-03-30T02:52:02.253Z,6.50
2019-03-30T02:54:31.086Z,6.50
2019-03-30T02:56:59.813Z,6.50
2019-03-30T02:59:28.484Z,6.50
2019-03-30T03:01:57.165Z,6.40
2019-03-30T03:04:25.855Z,6.40
2019-03-30T03:06:54.525Z,6.40
2019-03-30T03:09:23.224Z,6.30
2019-03-30T03:11:51.909Z,6.30
2019-03-30T03:14:20.603Z,6.30
2019-03-30T03:16:49.299Z,6.30
2019-03-30T03:19:17.965Z,6.30
2019-03-30T03:21:46.652Z,6.20
2019-03-30T03:24:15.333Z,6.30
2019-03-30T03:26:44.025Z,6.30
2019-03-30T03:29:12.701Z,6.30
2019-03-30T03:31:41.398Z,6.30
2019-03-30T03:34:10.076Z,6.20
2019-03-30T03:36:38.767Z,6.20
2019-03-30T03:39:07.448Z,6.20
2019-03-30T03:41:36.134Z,6.20
2019-03-30T03:44:04.837Z,6.20
2019-03-30T03:46:33.508Z,6.20
2019-03-30T03:49:02.209Z,6.20
2019-03-30T03:51:30.876Z,6.20
2019-03-30T03:53:59.574Z,6.20
2019-03-30T03:56:28.240Z,6.10
2019-03-30T03:58:57.357Z,6.10
2019-03-30T04:01:26.518Z,6.10
2019-03-30T04:03:55.220Z,6.10
2019-03-30T04:06:23.890Z,6.00
2019-03-30T04:08:54.193Z,6.00
2019-03-30T04:11:22.965Z,6.10
2019-03-30T04:13:52.364Z,6.10
2019-03-30T04:16:21.066Z,6.10
2019-03-30T04:18:49.745Z,6.00
2019-03-30T04:21:18.438Z,6.00
2019-03-30T04:23:47.104Z,6.00
2019-03-30T04:26:15.797Z,6.00
2019-03-30T04:28:44.474Z,6.00
2019-03-30T04:31:13.172Z,6.00
2019-03-30T04:33:41.846Z,6.00
2019-03-30T04:36:10.545Z,6.00
2019-03-30T04:38:39.240Z,6.00
2019-03-30T04:41:07.908Z,6.10
2019-03-30T04:43:36.608Z,6.20
2019-03-30T04:46:05.285Z,6.10
2019-03-30T04:48:33.981Z,6.20
2019-03-30T04:51:02.651Z,6.30
2019-03-30T04:53:31.351Z,6.30
2019-03-30T04:56:00.044Z,6.30
2019-03-30T04:58:28.718Z,6.30
2019-03-30T05:00:57.413Z,6.40
2019-03-30T05:03:26.092Z,6.50
2019-03-30T05:05:54.780Z,6.50
2019-03-30T05:08:23.456Z,6.60
2019-03-30T05:10:52.159Z,6.60
2019-03-30T05:13:20.842Z,6.70
2019-03-30T05:15:49.534Z,6.70
2019-03-30T05:18:18.240Z,6.70
2019-03-30T05:20:46.917Z,6.80
2019-03-30T05:23:15.613Z,6.90
2019-03-30T05:25:44.284Z,6.90
2019-03-30T05:28:13.096Z,7.00
2019-03-30T05:30:41.783Z,7.00
2019-03-30T05:33:10.472Z,7.10
2019-03-30T05:35:39.161Z,7.10
2019-03-30T05:38:07.852Z,7.20
2019-03-30T05:40:36.526Z,7.30
2019-03-30T05:43:05.219Z,7.30
2019-03-30T05:45:33.923Z,7.40
2019-03-30T05:48:02.629Z,7.40
2019-03-30T05:50:31.304Z,7.50
2019-03-30T05:52:59.997Z,7.50
2019-03-30T05:55:28.701Z,7.70
2019-03-30T05:57:57.388Z,7.80
2019-03-30T06:00:26.080Z,7.90
2019-03-30T06:02:54.759Z,8.00
2019-03-30T06:05:23.479Z,8.00
2019-03-30T06:07:52.146Z,8.10
2019-03-30T06:10:20.837Z,8.30
2019-03-30T06:12:49.652Z,8.30
2019-03-30T06:15:18.368Z,8.40
2019-03-30T06:17:47.103Z,8.40
2019-03-30T06:20:15.844Z,8.40
2019-03-30T06:22:44.546Z,8.50
2019-03-30T06:25:13.216Z,8.60
2019-03-30T06:27:41.910Z,8.70
2019-03-30T06:30:47.577Z,8.90
2019-03-30T06:33:16.315Z,8.90
2019-03-30T06:35:45.083Z,9.10
2019-03-30T06:38:13.807Z,9.30
2019-03-30T06:40:42.488Z,9.60
2019-03-30T06:43:11.256Z,9.80
2019-03-30T06:45:39.932Z,9.80
2019-03-30T06:48:08.688Z,10.00
2019-03-30T06:50:37.438Z,10.20
2019-03-30T06:53:06.137Z,10.50
2019-03-30T06:55:34.796Z,10.40
2019-03-30T06:58:03.488Z,10.50
2019-03-30T07:00:33.874Z,10.70
2019-03-30T07:03:04.436Z,10.70
2019-03-30T07:05:37.477Z,11.10
2019-03-30T07:08:06.173Z,11.30
2019-03-30T07:10:38.271Z,11.60
2019-03-30T07:13:05.467Z,11.90
2019-03-30T07:15:34.627Z,12.50
2019-03-30T07:18:03.321Z,12.90
2019-03-30T07:20:32.047Z,13.20
2019-03-30T07:23:11.070Z,12.90
2019-03-30T07:25:31.366Z,12.20
2019-03-30T07:28:00.030Z,12.20
2019-03-30T07:30:28.803Z,12.00
2019-03-30T07:32:57.606Z,11.70
2019-03-30T07:35:26.273Z,11.70
2019-03-30T07:37:55.056Z,11.80
2019-03-30T07:40:23.722Z,11.80
2019-03-30T07:42:52.482Z,12.20
2019-03-30T07:45:21.182Z,12.60
2019-03-30T07:47:49.986Z,13.00
2019-03-30T07:50:18.697Z,13.00
2019-03-30T07:52:49.734Z,13.70
2019-03-30T07:55:18.459Z,14.00
2019-03-30T07:57:47.155Z,14.60
2019-03-30T08:00:15.842Z,14.10
2019-03-30T08:02:44.528Z,14.10
2019-03-30T08:05:13.236Z,13.70
2019-03-30T08:10:14.864Z,12.90
2019-03-30T08:12:43.554Z,13.00
2019-03-30T08:15:12.267Z,13.60
2019-03-30T08:17:40.965Z,13.70
2019-03-30T08:20:09.755Z,14.20
2019-03-30T08:22:38.642Z,14.20
2019-03-30T08:25:07.343Z,14.60
2019-03-30T08:27:36.097Z,14.70
2019-03-30T08:30:06.558Z,15.30
2019-03-30T08:32:35.253Z,15.60
2019-03-30T08:35:04.932Z,15.50
2019-03-30T08:37:33.639Z,15.30
2019-03-30T08:40:02.345Z,15.20
2019-03-30T08:42:31.053Z,15.20
2019-03-30T08:44:59.746Z,15.00
2019-03-30T08:47:28.476Z,15.10
2019-03-30T08:52:25.605Z,15.70
2019-03-30T08:54:54.305Z,15.70
2019-03-30T08:57:22.982Z,15.90
2019-03-30T08:59:51.668Z,15.90
2019-03-30T09:17:18.056Z,16.60
2019-03-30T09:19:46.753Z,16.90
2019-03-30T09:22:15.472Z,17.10
2019-03-30T09:24:44.154Z,16.30
2019-03-30T09:27:12.853Z,16.80
2019-03-30T09:29:41.528Z,16.60
2019-03-30T09:32:14.748Z,16.70
2019-03-30T09:34:40.573Z,16.80
2019-03-30T09:37:09.265Z,17.00
2019-03-30T09:39:37.940Z,17.00
2019-03-30T09:42:06.636Z,17.50
2019-03-30T09:44:35.339Z,17.80
2019-03-30T09:47:04.018Z,17.90
2019-03-30T09:49:32.720Z,17.70
2019-03-30T09:52:01.394Z,17.90
2019-03-30T09:54:30.093Z,17.90
2019-03-30T09:56:58.773Z,17.40
2019-03-30T09:59:27.462Z,17.80
2019-03-30T10:01:56.147Z,18.00
2019-03-30T10:04:24.838Z,17.50
2019-03-30T10:06:53.538Z,17.90
2019-03-30T10:09:22.219Z,18.40
2019-03-30T10:11:50.915Z,18.40
2019-03-30T10:14:19.597Z,18.50
2019-03-30T10:16:48.791Z,18.10
2019-03-30T10:19:17.695Z,18.00
2019-03-30T10:21:46.372Z,17.70
2019-03-30T10:24:15.074Z,17.80
2019-03-30T10:26:43.745Z,17.90
2019-03-30T10:29:12.446Z,17.80
2019-03-30T10:31:41.117Z,17.90
2019-03-30T10:34:09.817Z,18.50
2019-03-30T10:36:38.512Z,19.50
2019-03-30T10:39:07.883Z,18.60
2019-03-30T10:41:36.591Z,18.40
2019-03-30T10:44:05.264Z,19.00
2019-03-30T10:46:33.964Z,18.90
2019-03-30T10:49:02.642Z,18.40
2019-03-30T10:51:31.344Z,18.00
2019-03-30T10:54:00.024Z,18.20
2019-03-30T10:56:28.698Z,17.90
2019-03-30T10:58:57.399Z,18.10
2019-03-30T11:01:26.075Z,18.40
2019-03-30T11:03:54.769Z,18.20
2019-03-30T11:06:23.447Z,17.80
2019-03-30T11:08:52.145Z,17.60
2019-03-30T11:11:20.822Z,17.10
2019-03-30T11:13:49.617Z,17.10
2019-03-30T11:16:18.309Z,16.40
2019-03-30T11:18:46.990Z,16.20
2019-03-30T11:21:15.688Z,16.10
2019-03-30T11:23:44.454Z,16.10
2019-03-30T11:26:13.179Z,16.10
2019-03-30T11:28:41.856Z,15.80
2019-03-30T11:31:10.565Z,15.60
2019-03-30T11:33:39.238Z,15.90
2019-03-30T11:36:07.933Z,15.80
2019-03-30T11:38:36.638Z,15.90
2019-03-30T11:41:05.303Z,15.80
2019-03-30T11:43:34.008Z,15.10
2019-03-30T11:46:02.685Z,15.30
2019-03-30T11:48:31.381Z,15.30
2019-03-30T11:51:00.059Z,15.40
2019-03-30T11:53:28.749Z,15.50
2019-03-30T11:55:57.445Z,15.30
2019-03-30T11:58:26.129Z,15.10
2019-03-30T12:00:54.820Z,15.20
2019-03-30T12:03:23.492Z,15.30
2019-03-30T12:05:52.184Z,15.40
2019-03-30T12:08:20.860Z,15.20
2019-03-30T12:10:49.565Z,15.10
2019-03-30T12:13:18.264Z,14.90
2019-03-30T12:15:46.936Z,15.00
2019-03-30T12:18:16.531Z,14.90
2019-03-30T12:20:45.196Z,14.80
2019-03-30T12:23:13.901Z,15.00
2019-03-30T12:25:42.588Z,15.10
2019-03-30T12:28:11.301Z,15.10
2019-03-30T12:30:39.984Z,15.20
2019-03-30T12:33:08.685Z,15.20
2019-03-30T12:35:37.397Z,15.20
2019-03-30T12:38:06.048Z,15.20
2019-03-30T12:40:34.750Z,15.30
2019-03-30T12:43:03.420Z,15.40
2019-03-30T12:45:32.120Z,15.30
2019-03-30T12:48:00.798Z,15.40
2019-03-30T12:50:29.489Z,15.30
2019-03-30T12:52:58.176Z,15.50
2019-03-30T12:55:26.876Z,15.50
2019-03-30T12:57:55.580Z,15.50
2019-03-30T13:00:24.252Z,15.40
2019-03-30T13:02:52.949Z,15.30
2019-03-30T13:05:21.631Z,15.50
2019-03-30T13:07:50.329Z,15.40
2019-03-30T13:10:19.007Z,15.60
2019-03-30T13:12:47.709Z,16.10
2019-03-30T13:15:16.377Z,16.00
2019-03-30T13:17:45.076Z,16.40
2019-03-30T13:20:13.758Z,16.50
2019-03-30T13:22:42.468Z,17.00
2019-03-30T13:25:11.161Z,17.30
2019-03-30T13:27:39.840Z,17.70
2019-03-30T13:30:08.628Z,19.10
2019-03-30T13:32:37.311Z,20.10
2019-03-30T13:35:06.012Z,20.10
2019-03-30T13:37:35.672Z,20.00
2019-03-30T13:40:06.824Z,19.90
2019-03-30T13:42:35.508Z,20.50
2019-03-30T13:45:06.012Z,19.70
2019-03-30T13:47:36.362Z,19.30
2019-03-30T13:50:06.736Z,19.30
2019-03-30T13:52:35.761Z,18.30
2019-03-30T13:55:05.237Z,18.20
2019-03-30T13:57:33.930Z,18.40
2019-03-30T14:00:02.796Z,18.30
2019-03-30T14:02:31.493Z,17.90
2019-03-30T14:05:00.340Z,17.50
2019-03-30T14:07:29.072Z,18.10
2019-03-30T14:09:57.845Z,17.90
2019-03-30T14:12:26.755Z,18.20
2019-03-30T14:14:55.426Z,18.30
2019-03-30T14:17:24.120Z,18.40
2019-03-30T14:19:52.817Z,18.00
2019-03-30T14:22:21.497Z,17.60
2019-03-30T14:24:50.192Z,17.20
2019-03-30T14:27:18.872Z,17.10
2019-03-30T14:29:47.566Z,16.70
2019-03-30T14:32:16.265Z,16.30
2019-03-30T14:34:44.933Z,16.00
2019-03-30T14:37:13.629Z,15.80
2019-03-30T14:39:42.323Z,15.90
2019-03-30T14:42:11.014Z,15.40
2019-03-30T14:45:00.586Z,15.20
2019-03-30T14:47:30.196Z,15.10
2019-03-30T14:49:58.872Z,15.20
2019-03-30T14:52:27.574Z,14.80
2019-03-30T14:54:56.347Z,14.60
2019-03-30T14:57:25.040Z,14.60
2019-03-30T14:59:53.869Z,14.50
2019-03-30T15:02:22.865Z,14.50
2019-03-30T15:04:51.580Z,14.40
2019-03-30T15:07:20.272Z,14.30
2019-03-30T15:09:49.009Z,14.40
2019-03-30T15:12:17.645Z,14.20
2019-03-30T15:14:46.344Z,14.20
2019-03-30T15:17:15.045Z,14.20
2019-03-30T15:19:43.748Z,14.10
2019-03-30T15:22:12.454Z,13.90
2019-03-30T15:24:41.116Z,13.80
2019-03-30T15:27:09.810Z,13.60
2019-03-30T15:29:38.488Z,13.60
2019-03-30T15:32:07.187Z,13.60
2019-03-30T15:34:35.860Z,13.60
2019-03-30T15:37:04.564Z,13.60
2019-03-30T15:39:33.249Z,13.50
2019-03-30T15:42:01.947Z,13.50
2019-03-30T15:44:30.655Z,13.40
2019-03-30T15:46:59.326Z,13.20
2019-03-30T15:49:28.026Z,13.20
2019-03-30T15:51:56.700Z,13.20
2019-03-30T15:54:25.402Z,13.10
2019-03-30T15:56:54.077Z,13.10
2019-03-30T15:59:22.774Z,13.10
2019-03-30T16:01:51.457Z,13.00
2019-03-30T16:04:20.157Z,13.00
2019-03-30T16:06:48.846Z,13.00
2019-03-30T16:09:17.617Z,12.80
2019-03-30T16:11:46.318Z,12.80
2019-03-30T16:14:14.993Z,12.70
2019-03-30T16:16:43.684Z,12.70
2019-03-30T16:19:12.360Z,12.50
2019-03-30T16:21:41.053Z,12.40
2019-03-30T16:24:09.726Z,12.20
2019-03-30T16:26:42.141Z,12.10
2019-03-30T16:29:08.763Z,12.00
2019-03-30T16:31:37.432Z,11.90
2019-03-30T16:34:06.145Z,11.90
2019-03-30T16:36:34.812Z,11.90
2019-03-30T16:39:05.014Z,11.80
2019-03-30T16:41:33.710Z,11.70
2019-03-30T16:44:02.403Z,11.70
2019-03-30T16:46:31.076Z,11.60
2019-03-30T16:48:59.769Z,11.60
2019-03-30T16:51:28.468Z,11.40
2019-03-30T16:53:57.140Z,11.40
2019-03-30T16:56:25.838Z,11.30
2019-03-30T16:58:54.521Z,11.20
2019-03-30T17:01:23.225Z,11.10
2019-03-30T17:03:51.913Z,11.10
2019-03-30T17:06:20.600Z,11.00
2019-03-30T17:08:49.294Z,11.00
2019-03-30T17:11:17.965Z,10.90
2019-03-30T17:13:46.663Z,10.80
2019-03-30T17:16:15.340Z,10.80
2019-03-30T17:18:44.042Z,10.70
2019-03-30T17:21:12.749Z,10.70
2019-03-30T17:23:41.438Z,10.60
2019-03-30T17:26:10.113Z,10.60
2019-03-30T17:28:38.792Z,10.40
2019-03-30T17:31:07.484Z,10.40
2019-03-30T17:33:36.163Z,10.30
2019-03-30T17:36:04.869Z,10.30
2019-03-30T17:38:33.538Z,10.20
2019-03-30T17:41:02.228Z,10.20
2019-03-30T17:43:30.934Z,10.10
2019-03-30T17:45:59.604Z,10.00
2019-03-30T17:48:28.303Z,10.00
2019-03-30T17:50:58.378Z,10.00
2019-03-30T17:53:27.477Z,9.80
2019-03-30T17:55:56.160Z,9.80
2019-03-30T17:58:24.844Z,9.80
2019-03-30T18:00:53.538Z,9.70
2019-03-30T18:03:22.204Z,9.70
2019-03-30T18:05:50.909Z,9.60
2019-03-30T18:08:19.581Z,9.60
2019-03-30T18:10:48.381Z,9.50
2019-03-30T18:13:17.053Z,9.40
2019-03-30T18:15:45.750Z,9.30
2019-03-30T18:18:14.424Z,9.30
2019-03-30T18:20:43.092Z,9.30
2019-03-30T18:23:11.825Z,9.20
2019-03-30T18:25:40.471Z,9.20
2019-03-30T18:28:09.180Z,9.10
2019-03-30T18:30:39.859Z,9.10
2019-03-30T18:33:08.551Z,9.10
2019-03-30T18:35:39.321Z,9.00
2019-03-30T18:38:08.006Z,9.00
2019-03-30T18:40:36.699Z,8.90
2019-03-30T18:43:05.372Z,8.90
2019-03-30T18:45:34.070Z,8.90
2019-03-30T18:48:13.257Z,8.80
2019-03-30T18:50:42.054Z,8.70
2019-03-30T18:53:10.749Z,8.70
2019-03-30T18:55:39.424Z,8.70
2019-03-30T18:58:08.128Z,8.60
2019-03-30T19:00:36.909Z,8.50
2019-03-30T19:03:06.308Z,8.50
2019-03-30T19:05:35.353Z,8.50
2019-03-30T19:08:03.988Z,8.40
2019-03-30T19:10:32.917Z,8.40
2019-03-30T19:13:01.597Z,8.30
2019-03-30T19:15:30.287Z,8.30
2019-03-30T19:18:00.981Z,8.30
2019-03-30T19:20:30.715Z,8.20
2019-03-30T19:22:59.399Z,8.10
2019-03-30T19:25:29.746Z,8.10
2019-03-30T19:27:58.561Z,8.00
2019-03-30T19:30:27.308Z,8.00
2019-03-30T19:32:55.977Z,7.90
2019-03-30T19:35:24.661Z,7.90
2019-03-30T19:37:53.360Z,7.80
2019-03-30T19:40:22.068Z,7.90
2019-03-30T19:42:50.816Z,7.80
2019-03-30T19:45:19.531Z,7.70
2019-03-30T19:47:48.221Z,7.70
2019-03-30T19:50:16.949Z,7.70
2019-03-30T19:52:45.619Z,7.60
2019-03-30T19:55:14.437Z,7.60
2019-03-30T19:57:43.143Z,7.60
2019-03-30T20:00:14.644Z,7.60
2019-03-30T20:03:02.729Z,7.60
2019-03-30T20:05:31.511Z,7.50
2019-03-30T20:08:11.553Z,7.50
2019-03-30T20:10:30.604Z,7.50
2019-03-30T20:12:59.984Z,7.50
2019-03-30T20:15:28.672Z,7.40
2019-03-30T20:17:57.349Z,7.40
2019-03-30T20:20:26.021Z,7.40
2019-03-30T20:22:54.725Z,7.30
2019-03-30T20:25:26.023Z,7.30
2019-03-30T20:27:53.817Z,7.30
2019-03-30T20:30:24.355Z,7.20
2019-03-30T20:32:52.860Z,7.20
2019-03-30T20:35:21.552Z,7.20
2019-03-30T20:37:50.231Z,7.20
2019-03-30T20:40:18.930Z,7.20
2019-03-30T20:42:47.685Z,7.10
2019-03-30T20:45:16.410Z,7.10
2019-03-30T20:47:45.106Z,7.10
2019-03-30T20:50:13.791Z,7.10
2019-03-30T20:52:42.529Z,7.10
2019-03-30T20:55:11.308Z,7.00
2019-03-30T20:57:41.663Z,7.00
2019-03-30T21:00:11.727Z,7.00
2019-03-30T21:02:40.417Z,7.00
2019-03-30T21:05:09.104Z,7.00
2019-03-30T21:07:37.938Z,6.90
2019-03-30T21:10:10.973Z,6.90
2019-03-30T21:12:39.652Z,7.00
2019-03-30T21:15:08.323Z,7.00
2019-03-30T21:17:37.020Z,6.90
2019-03-30T21:20:06.198Z,6.80
2019-03-30T21:22:34.944Z,6.80
2019-03-30T21:25:04.450Z,6.90
2019-03-30T21:27:33.184Z,6.80
2019-03-30T21:30:02.014Z,6.80
2019-03-30T21:32:30.747Z,6.80
2019-03-30T21:34:59.445Z,6.80
2019-03-30T21:37:28.152Z,6.80
2019-03-30T21:39:56.909Z,6.70
2019-03-30T21:42:25.617Z,6.70
2019-03-30T21:44:54.281Z,6.70
2019-03-30T21:47:23.049Z,6.70
2019-03-30T21:49:51.824Z,6.60
2019-03-30T21:52:21.434Z,6.60
2019-03-30T21:54:50.101Z,6.60
2019-03-30T21:57:18.800Z,6.60
2019-03-30T21:59:47.476Z,6.60
2019-03-30T22:02:16.201Z,6.60
2019-03-30T22:04:44.926Z,6.60
2019-03-30T22:07:13.618Z,6.60
2019-03-30T22:09:42.327Z,6.60
2019-03-30T22:12:11.049Z,6.60
2019-03-30T22:14:39.749Z,6.60
2019-03-30T22:17:10.010Z,6.60
2019-03-30T22:19:38.733Z,6.50
2019-03-30T22:22:07.420Z,6.50
2019-03-30T22:24:36.181Z,6.50
2019-03-30T22:27:04.828Z,6.50
2019-03-30T22:29:33.531Z,6.50
2019-03-30T22:32:02.226Z,6.50
2019-03-30T22:34:30.924Z,6.50
2019-03-30T22:36:59.602Z,6.40
2019-03-30T22:39:28.312Z,6.50
2019-03-30T22:41:57.012Z,6.40
2019-03-30T22:44:25.720Z,6.40
2019-03-30T22:46:54.408Z,6.40
2019-03-30T22:49:23.123Z,6.40
2019-03-30T22:51:51.814Z,6.40
2019-03-30T22:54:20.534Z,6.30
2019-03-30T22:56:49.205Z,6.40
2019-03-30T22:59:17.919Z,6.30
2019-03-30T23:01:46.585Z,6.30
2019-03-30T23:04:15.276Z,6.20
2019-03-30T23:06:43.970Z,6.20
2019-03-30T23:09:12.645Z,6.10
2019-03-30T23:11:41.337Z,6.20
2019-03-30T23:14:10.009Z,6.20
2019-03-30T23:16:38.710Z,6.10
2019-03-30T23:19:07.380Z,6.20
2019-03-30T23:21:36.078Z,6.10
2019-03-30T23:24:04.780Z,6.10
2019-03-30T23:26:33.445Z,6.20
2019-03-30T23:29:02.136Z,6.10
2019-03-30T23:31:30.805Z,6.10
2019-03-30T23:33:59.500Z,6.00
2019-03-30T23:36:28.165Z,6.00
2019-03-30T23:38:56.867Z,6.10
2019-03-30T23:41:25.564Z,6.10
2019-03-30T23:43:54.236Z,6.00
2019-03-30T23:46:22.929Z,6.00
2019-03-30T23:48:51.606Z,6.00
2019-03-30T23:51:20.303Z,6.00
2019-03-30T23:53:48.972Z,6.00
2019-03-30T23:56:21.901Z,5.90
2019-03-30T23:58:51.174Z,6.00
